Dobbins Air Reserve Base Airport
KMGE : now visible

Airfield :











YOU CAN JOIN US ON...

 
LOGIN :

Register | Disclaimer

   EN    FR    IT 

 









Legend :    VFR   Marginal VFR   IFR   Intensive IFR   Very Intensive IFR
Visi :
Ceiling :
>= 8 km
>= 3000ft
5 to 8 km
1000 to 3000 ft
1500m to 5 km
500 to 1000 ft
800 to 1500m
200 to 500 ft
< 800m
< 200 ft
Symbols :   Thunderstorms  Fog  Heavy snow  Heavy precipitations  Wind > 20 kt






- Airport Elevation : 1068 ft


KMGE - Dobbins Air Reserve Base

CURRENT METAR :
  • 110256Z 26004KT 10SM FEW200 18/16 A3004 RMK AO2A SLP167 T01760163 52010 $

EXPIRED METARs :
  • 110156Z 31004KT 10SM SCT080 SCT200 19/16 A3003 RMK AO2A SLP164 T01900162 $
  • 110056Z 29006KT 10SM FEW044 SCT080 SCT150 BKN200 20/16 A3003 RMK AO2A SLP164 T01960164 $

TAF TAF KMGE
Valid from the 10 at 21:00 until the 12 at 03:00 UTC


102115Z 1021/1203 30009KT 9999 VCSH BKN025 BKN040 BKN080 BKN120 BKN200 QNH2999INS
TEMPO 1021/1023 32012G20KT 6000 -TSRA OVC015CB
BECMG 1106/1107 30007KT 9999 NSW BKN030 BKN050 BKN100 BKN150 BKN200 QNH3005INS
BECMG 1201/1202 31009KT 9999 VCSH BKN020 OVC050 QNH3009INS TX25/1120Z TN14/1112Z
KZTL FIR / North America



MET'MAP, your aeronautical weather chart ! - Copyright ORBIFLY December 2007 - Disclaimer

ORBIFLY MET'MAP TEAM :

Programming & Development : Alexandra Zaïnal
Concept & original design : Baudouin d'Aumeries
Assistance for programming : Marc-Olivier Méhu
Technical & hardware support : Manuel Goepfert

Contact : metmap@orbifly.com




SOURCES & CREDITS :

   NOAA       Earth
Advisory